createdAt,value
2018-05-18T00:00:40.112Z,99.99
2018-05-18T00:01:40.113Z,99.99
2018-05-18T00:02:40.687Z,99.99
2018-05-18T00:03:40.128Z,99.99
2018-05-18T00:04:40.116Z,99.99
2018-05-18T00:05:40.108Z,99.99
2018-05-18T00:06:40.110Z,99.99
2018-05-18T00:07:40.120Z,99.99
2018-05-18T00:08:40.107Z,99.99
2018-05-18T00:09:40.135Z,99.99
2018-05-18T00:10:40.103Z,99.99
2018-05-18T00:11:40.107Z,99.99
2018-05-18T00:12:40.103Z,99.99
2018-05-18T00:13:40.102Z,99.99
2018-05-18T00:14:40.102Z,99.99
2018-05-18T00:15:40.099Z,99.99
2018-05-18T00:16:40.100Z,99.99
2018-05-18T00:17:40.099Z,99.99
2018-05-18T00:18:40.102Z,99.99
2018-05-18T00:19:40.102Z,99.99
2018-05-18T00:20:40.098Z,99.99
2018-05-18T00:21:40.096Z,99.99
2018-05-18T00:22:40.096Z,99.99
2018-05-18T00:23:40.095Z,99.99
2018-05-18T00:24:40.091Z,99.99
2018-05-18T00:25:40.094Z,99.99
2018-05-18T00:26:40.121Z,99.99
2018-05-18T00:27:40.200Z,99.99
2018-05-18T00:28:40.141Z,99.99
2018-05-18T00:29:40.092Z,99.99
2018-05-18T00:30:40.089Z,99.99
2018-05-18T00:31:40.092Z,99.80
2018-05-18T00:32:40.090Z,99.22
2018-05-18T00:33:40.084Z,99.55
2018-05-18T00:34:40.122Z,99.08
2018-05-18T00:35:40.094Z,99.99
2018-05-18T00:36:40.117Z,99.84
2018-05-18T00:37:40.091Z,99.27
2018-05-18T00:38:40.082Z,99.65
2018-05-18T00:39:40.081Z,99.27
2018-05-18T00:40:40.086Z,99.65
2018-05-18T00:41:40.087Z,99.75
2018-05-18T00:42:40.081Z,99.75
2018-05-18T00:43:40.079Z,99.99
2018-05-18T00:44:40.084Z,99.99
2018-05-18T00:45:40.077Z,99.99
2018-05-18T00:46:40.077Z,99.99
2018-05-18T00:47:40.074Z,99.99
2018-05-18T00:48:40.075Z,99.99
2018-05-18T00:49:40.074Z,99.99
2018-05-18T00:50:40.076Z,99.99
2018-05-18T00:51:40.072Z,99.99
2018-05-18T00:52:40.104Z,99.99
2018-05-18T00:53:40.078Z,99.99
2018-05-18T00:54:40.070Z,99.99
2018-05-18T00:55:40.072Z,99.99
2018-05-18T00:56:40.068Z,99.99
2018-05-18T00:57:40.068Z,99.99
2018-05-18T00:58:40.067Z,99.99
2018-05-18T00:59:40.067Z,99.99
2018-05-18T01:00:40.076Z,99.99
2018-05-18T01:01:40.063Z,99.99
2018-05-18T01:02:40.063Z,99.99
2018-05-18T01:03:40.072Z,99.99
2018-05-18T01:04:40.061Z,99.99
2018-05-18T01:05:40.090Z,99.99
2018-05-18T01:06:40.062Z,99.99
2018-05-18T01:07:40.061Z,99.99
2018-05-18T01:08:40.059Z,99.99
2018-05-18T01:09:40.057Z,99.99
2018-05-18T01:10:40.056Z,99.99
2018-05-18T01:11:40.059Z,99.99
2018-05-18T01:12:40.056Z,99.99
2018-05-18T01:13:40.055Z,99.99
2018-05-18T01:14:40.077Z,99.99
2018-05-18T01:15:40.056Z,99.99
2018-05-18T01:16:40.127Z,99.99
2018-05-18T01:17:40.051Z,99.99
2018-05-18T01:18:40.052Z,99.99
2018-05-18T01:19:40.050Z,99.99
2018-05-18T01:20:40.047Z,99.99
2018-05-18T01:21:40.047Z,99.99
2018-05-18T01:22:40.046Z,99.99
2018-05-18T01:23:40.049Z,99.99
2018-05-18T01:24:40.044Z,99.99
2018-05-18T01:25:40.045Z,99.99
2018-05-18T01:26:40.042Z,99.99
2018-05-18T01:27:40.052Z,99.99
2018-05-18T01:28:40.042Z,99.99
2018-05-18T01:29:40.040Z,99.99
2018-05-18T01:30:40.741Z,99.99
2018-05-18T01:31:40.039Z,99.99
2018-05-18T01:32:40.040Z,99.99
2018-05-18T01:33:40.040Z,99.99
2018-05-18T01:34:40.036Z,99.99
2018-05-18T01:35:40.038Z,99.99
2018-05-18T01:36:40.055Z,99.99
2018-05-18T01:37:40.699Z,99.99
2018-05-18T01:38:40.033Z,99.99
2018-05-18T01:39:40.033Z,99.99
2018-05-18T01:40:40.050Z,99.99
2018-05-18T01:41:40.031Z,99.99
2018-05-18T01:42:40.030Z,99.99
2018-05-18T01:43:40.059Z,99.99
2018-05-18T01:44:40.029Z,99.99
2018-05-18T01:45:40.030Z,99.99
2018-05-18T01:46:40.032Z,99.99
2018-05-18T01:47:40.063Z,99.99
2018-05-18T01:48:40.028Z,99.99
2018-05-18T01:49:40.025Z,99.99
2018-05-18T01:50:40.022Z,99.99
2018-05-18T01:51:40.023Z,99.99
2018-05-18T01:52:40.021Z,99.99
2018-05-18T01:53:40.022Z,99.99
2018-05-18T01:54:40.044Z,99.99
2018-05-18T01:55:40.020Z,99.84
2018-05-18T01:56:40.025Z,99.46
2018-05-18T01:57:40.069Z,99.94
2018-05-18T01:58:40.017Z,99.99
2018-05-18T01:59:40.016Z,99.99
2018-05-18T02:00:40.014Z,99.99
2018-05-18T02:01:40.018Z,99.99
2018-05-18T02:02:40.016Z,99.99
2018-05-18T02:03:40.013Z,99.99
2018-05-18T02:04:40.012Z,99.99
2018-05-18T02:05:40.041Z,99.99
2018-05-18T02:06:40.010Z,99.99
2018-05-18T02:07:40.008Z,99.99
2018-05-18T02:08:40.007Z,99.99
2018-05-18T02:09:40.042Z,99.99
2018-05-18T02:10:40.005Z,99.99
2018-05-18T02:11:40.006Z,99.99
2018-05-18T02:12:40.003Z,99.99
2018-05-18T02:13:40.002Z,99.99
2018-05-18T02:14:40.001Z,99.99
2018-05-18T02:15:40.005Z,99.99
2018-05-18T02:16:40.010Z,99.99
2018-05-18T02:17:40.023Z,99.99
2018-05-18T02:18:40.002Z,99.99
2018-05-18T02:19:40.000Z,99.99
2018-05-18T02:20:40.000Z,99.99
2018-05-18T02:21:39.994Z,99.99
2018-05-18T02:22:39.994Z,99.99
2018-05-18T02:23:39.999Z,99.99
2018-05-18T02:24:39.992Z,99.99
2018-05-18T02:25:39.995Z,99.99
2018-05-18T02:26:40.016Z,99.55
2018-05-18T02:27:40.015Z,99.75
2018-05-18T02:28:39.991Z,99.37
2018-05-18T02:29:39.987Z,99.99
2018-05-18T02:30:39.987Z,99.99
2018-05-18T02:31:40.029Z,99.99
2018-05-18T02:32:40.018Z,99.99
2018-05-18T02:33:40.018Z,99.99
2018-05-18T02:34:39.985Z,99.99
2018-05-18T02:35:39.984Z,99.75
2018-05-18T02:36:39.980Z,99.94
2018-05-18T02:37:39.985Z,99.94
2018-05-18T02:38:39.992Z,99.99
2018-05-18T02:39:39.981Z,99.99
2018-05-18T02:40:39.980Z,99.94
2018-05-18T02:41:39.980Z,99.99
2018-05-18T02:42:39.978Z,99.99
2018-05-18T02:43:39.978Z,99.99
2018-05-18T02:44:40.006Z,99.99
2018-05-18T02:45:40.015Z,99.99
2018-05-18T02:46:39.976Z,99.99
2018-05-18T02:47:39.973Z,99.99
2018-05-18T02:48:40.041Z,99.99
2018-05-18T02:49:40.004Z,99.99
2018-05-18T02:50:39.976Z,99.99
2018-05-18T02:51:39.973Z,99.99
2018-05-18T02:52:39.977Z,99.99
2018-05-18T02:53:39.970Z,99.99
2018-05-18T02:54:40.055Z,99.99
2018-05-18T02:55:39.968Z,99.99
2018-05-18T02:56:39.963Z,99.99
2018-05-18T02:57:39.962Z,99.99
2018-05-18T02:58:39.964Z,99.99
2018-05-18T02:59:39.968Z,99.99
2018-05-18T03:00:39.957Z,99.99
2018-05-18T03:01:39.960Z,99.99
2018-05-18T03:02:39.960Z,99.99
2018-05-18T03:03:39.956Z,99.99
2018-05-18T03:04:39.954Z,99.99
2018-05-18T03:05:39.955Z,99.99
2018-05-18T03:06:39.952Z,99.99
2018-05-18T03:07:39.951Z,99.99
2018-05-18T03:08:39.952Z,99.99
2018-05-18T03:09:39.950Z,99.99
2018-05-18T03:10:39.954Z,99.99
2018-05-18T03:11:39.960Z,99.99
2018-05-18T03:12:39.947Z,99.99
2018-05-18T03:13:39.946Z,99.99
2018-05-18T03:14:39.947Z,99.99
2018-05-18T03:15:39.955Z,99.99
2018-05-18T03:16:39.944Z,99.99
2018-05-18T03:17:39.949Z,99.99
2018-05-18T03:18:39.965Z,99.99
2018-05-18T03:19:39.979Z,99.99
2018-05-18T03:20:39.975Z,99.99
2018-05-18T03:21:39.956Z,99.99
2018-05-18T03:22:39.966Z,99.99
2018-05-18T03:23:39.941Z,99.99
2018-05-18T03:24:39.960Z,99.99
2018-05-18T03:25:39.960Z,99.99
2018-05-18T03:26:39.933Z,99.99
2018-05-18T03:27:39.932Z,99.99
2018-05-18T03:28:39.937Z,99.99
2018-05-18T03:29:39.933Z,99.99
2018-05-18T03:30:39.937Z,99.99
2018-05-18T03:31:39.937Z,99.99
2018-05-18T03:32:39.949Z,99.99
2018-05-18T03:33:39.927Z,99.99
2018-05-18T03:34:39.926Z,99.99
2018-05-18T03:35:39.924Z,99.99
2018-05-18T03:36:39.923Z,99.99
2018-05-18T03:37:39.922Z,99.99
2018-05-18T03:38:39.925Z,99.99
2018-05-18T03:39:39.923Z,99.99
2018-05-18T03:40:39.921Z,99.99
2018-05-18T03:41:39.919Z,99.99
2018-05-18T03:42:39.917Z,99.99
2018-05-18T03:43:39.919Z,99.99
2018-05-18T03:44:39.915Z,99.99
2018-05-18T03:45:39.921Z,99.99
2018-05-18T03:46:39.918Z,99.99
2018-05-18T03:47:39.912Z,99.99
2018-05-18T03:48:39.912Z,99.99
2018-05-18T03:49:39.938Z,99.99
2018-05-18T03:50:39.928Z,99.99
2018-05-18T03:51:39.925Z,99.99
2018-05-18T03:52:39.909Z,99.99
2018-05-18T03:53:39.908Z,99.99
2018-05-18T03:54:39.907Z,99.99
2018-05-18T03:55:39.908Z,99.99
2018-05-18T03:56:39.907Z,99.99
2018-05-18T03:57:39.904Z,99.99
2018-05-18T03:58:39.909Z,99.99
2018-05-18T03:59:39.911Z,99.99
2018-05-18T04:00:39.902Z,99.99
2018-05-18T04:01:39.900Z,99.99
2018-05-18T04:02:39.898Z,99.99
2018-05-18T04:03:39.897Z,99.99
2018-05-18T04:04:39.895Z,99.99
2018-05-18T04:05:39.897Z,99.99
2018-05-18T04:06:39.896Z,99.99
2018-05-18T04:07:39.894Z,99.99
2018-05-18T04:08:39.895Z,99.99
2018-05-18T04:09:39.892Z,99.99
2018-05-18T04:10:39.890Z,99.99
2018-05-18T04:11:39.890Z,99.99
2018-05-18T04:12:39.886Z,99.99
2018-05-18T04:13:39.887Z,99.99
2018-05-18T04:14:39.891Z,99.99
2018-05-18T04:15:39.888Z,99.99
2018-05-18T04:16:39.885Z,99.99
2018-05-18T04:17:39.887Z,99.99
2018-05-18T04:18:39.881Z,99.99
2018-05-18T04:19:39.881Z,99.99
2018-05-18T04:20:39.879Z,99.99
2018-05-18T04:21:39.877Z,99.99
2018-05-18T04:22:39.876Z,99.99
2018-05-18T04:23:39.878Z,99.99
2018-05-18T04:24:39.884Z,99.99
2018-05-18T04:25:39.888Z,99.99
2018-05-18T04:26:39.882Z,99.99
2018-05-18T04:27:39.873Z,99.99
2018-05-18T04:28:39.870Z,99.99
2018-05-18T04:29:39.874Z,99.99
2018-05-18T04:30:39.870Z,99.99
2018-05-18T04:31:39.887Z,99.99
2018-05-18T04:32:39.868Z,99.99
2018-05-18T04:33:39.882Z,99.99
2018-05-18T04:34:39.869Z,99.99
2018-05-18T04:35:39.875Z,99.99
2018-05-18T04:36:39.862Z,99.99
2018-05-18T04:37:39.882Z,99.99
2018-05-18T04:38:39.887Z,99.99
2018-05-18T04:39:39.887Z,99.99
2018-05-18T04:40:39.859Z,99.99
2018-05-18T04:41:39.872Z,99.99
2018-05-18T04:42:39.859Z,99.99
2018-05-18T04:43:39.856Z,99.99
2018-05-18T04:44:39.856Z,99.99
2018-05-18T04:45:39.908Z,99.99
2018-05-18T04:46:39.926Z,99.99
2018-05-18T04:47:39.934Z,99.99
2018-05-18T04:48:39.907Z,99.99
2018-05-18T04:49:39.904Z,99.99
2018-05-18T04:50:39.873Z,99.99
2018-05-18T04:51:39.849Z,99.99
2018-05-18T04:52:39.914Z,99.99
2018-05-18T04:53:39.957Z,99.99
2018-05-18T04:54:39.903Z,99.99
2018-05-18T04:55:39.850Z,99.99
2018-05-18T04:56:39.944Z,99.99
2018-05-18T04:57:39.894Z,99.99
2018-05-18T04:58:39.900Z,99.99
2018-05-18T04:59:39.883Z,99.99
2018-05-18T05:00:39.895Z,99.99
2018-05-18T05:01:39.957Z,99.99
2018-05-18T05:02:39.863Z,99.99
2018-05-18T05:03:52.680Z,99.99
2018-05-18T05:05:37.425Z,99.99
2018-05-18T05:06:37.322Z,99.99
2018-05-18T05:07:37.363Z,99.99
2018-05-18T05:08:38.763Z,99.99
2018-05-18T05:09:37.349Z,99.99
2018-05-18T05:10:37.449Z,99.99
2018-05-18T05:13:11.466Z,99.99
2018-05-18T05:14:11.398Z,99.99
2018-05-18T05:16:10.952Z,99.99
2018-05-18T05:17:10.796Z,99.99
2018-05-18T05:18:10.714Z,99.99
2018-05-18T05:19:10.691Z,99.99
2018-05-18T05:20:10.722Z,99.99
2018-05-18T05:21:10.719Z,99.89
2018-05-18T05:22:10.783Z,99.51
2018-05-18T05:23:10.755Z,99.79
2018-05-18T05:24:10.867Z,99.13
2018-05-18T05:25:10.765Z,99.03
2018-05-18T05:26:10.827Z,99.60
2018-05-18T05:27:10.770Z,99.89
2018-05-18T05:28:12.419Z,99.69
2018-05-18T05:29:11.115Z,99.98
2018-05-18T05:30:12.391Z,99.99
2018-05-18T05:31:10.710Z,99.69
2018-05-18T05:32:12.379Z,99.99
2018-05-18T05:33:10.692Z,99.99
2018-05-18T05:34:10.819Z,99.99
2018-05-18T05:35:10.821Z,99.99
2018-05-18T05:36:10.673Z,99.99
2018-05-18T05:37:10.742Z,99.99
2018-05-18T05:38:10.824Z,99.99
2018-05-18T05:39:12.360Z,99.99
2018-05-18T05:40:10.845Z,99.99
2018-05-18T05:41:10.773Z,99.99
2018-05-18T05:42:12.387Z,99.99
2018-05-18T05:43:10.743Z,99.99
2018-05-18T05:44:10.740Z,99.99
2018-05-18T05:45:10.705Z,99.99
2018-05-18T05:46:10.966Z,99.99
2018-05-18T05:47:10.769Z,99.99
2018-05-18T05:48:10.659Z,99.99
2018-05-18T05:49:10.762Z,99.99
2018-05-18T05:50:10.771Z,99.99
2018-05-18T05:51:12.325Z,99.99
2018-05-18T05:52:10.692Z,99.99
2018-05-18T05:53:10.892Z,99.99
2018-05-18T05:54:10.819Z,99.99
2018-05-18T05:55:10.804Z,99.99
2018-05-18T05:56:10.736Z,99.99
2018-05-18T05:57:10.834Z,99.99
2018-05-18T05:58:10.880Z,99.99
2018-05-18T05:59:10.857Z,99.99
2018-05-18T06:00:10.731Z,99.99
2018-05-18T06:01:10.890Z,99.99
2018-05-18T06:02:12.479Z,99.99
2018-05-18T06:03:13.294Z,99.98
2018-05-18T06:04:12.473Z,99.99
2018-05-18T06:05:10.740Z,99.99
2018-05-18T06:06:10.907Z,99.99
2018-05-18T06:07:12.621Z,99.98
2018-05-18T06:08:10.743Z,99.51
2018-05-18T06:09:11.815Z,99.99
2018-05-18T06:10:10.863Z,99.79
2018-05-18T06:11:12.403Z,99.79
2018-05-18T06:12:10.950Z,99.22
2018-05-18T06:13:10.775Z,99.32
2018-05-18T06:14:12.522Z,99.32
2018-05-18T06:15:10.771Z,98.74
2018-05-18T06:16:12.543Z,99.41
2018-05-18T06:17:12.376Z,99.22
2018-05-18T06:18:12.448Z,98.84
2018-05-18T06:19:12.382Z,99.03
2018-05-18T06:20:12.936Z,99.32
2018-05-18T06:21:12.701Z,98.65
2018-05-18T06:22:16.852Z,98.55
2018-05-18T06:23:10.961Z,98.46
2018-05-18T06:24:13.393Z,98.46
2018-05-18T06:25:13.460Z,98.27
2018-05-18T06:26:12.519Z,98.55
2018-05-18T06:27:10.927Z,98.27
2018-05-18T06:28:12.486Z,98.27
2018-05-18T06:29:10.856Z,98.55
2018-05-18T06:30:10.793Z,98.08
2018-05-18T06:31:10.830Z,98.65
2018-05-18T06:32:27.788Z,98.65
2018-05-18T06:33:11.985Z,98.46
2018-05-18T06:34:11.921Z,98.84
2018-05-18T06:35:12.025Z,98.46
2018-05-18T06:36:21.915Z,98.08
2018-05-18T06:38:09.629Z,98.18
2018-05-18T06:40:38.359Z,97.84
2018-05-18T06:41:37.275Z,97.46
2018-05-18T06:42:37.173Z,97.17
2018-05-18T06:43:37.199Z,97.27
2018-05-18T06:44:37.307Z,97.22
2018-05-18T06:45:38.236Z,97.08
2018-05-18T06:47:05.445Z,97.13
2018-05-18T06:52:52.827Z,97.46
2018-05-18T06:53:39.759Z,97.27
2018-05-18T06:54:54.364Z,98.32
2018-05-18T06:56:46.207Z,97.22
2018-05-18T06:57:35.119Z,97.94
2018-05-18T06:58:59.878Z,97.46
2018-05-18T07:00:32.029Z,97.65
2018-05-18T07:01:31.122Z,97.27
2018-05-18T07:04:15.521Z,96.41
2018-05-18T07:05:37.834Z,96.41
2018-05-18T07:07:09.779Z,96.70
2018-05-18T07:08:18.393Z,96.89
2018-05-18T07:10:04.180Z,96.03
2018-05-18T07:11:04.164Z,96.03
2018-05-18T07:12:58.473Z,96.03
2018-05-18T07:13:58.433Z,95.94
2018-05-18T07:15:54.012Z,95.75
2018-05-18T07:16:54.459Z,96.03
2018-05-18T07:17:53.808Z,95.84
2018-05-18T07:18:53.793Z,95.65
2018-05-18T07:19:53.799Z,95.46
2018-05-18T07:20:53.816Z,95.46
2018-05-18T07:21:53.821Z,95.46
2018-05-18T07:22:53.782Z,95.08
2018-05-18T07:23:53.811Z,94.79
2018-05-18T07:24:53.880Z,95.17
2018-05-18T07:25:53.784Z,94.70
2018-05-18T07:26:53.872Z,95.27
2018-05-18T07:27:53.787Z,95.36
2018-05-18T07:28:54.510Z,94.60
2018-05-18T07:29:53.765Z,93.55
2018-05-18T07:30:53.753Z,93.08
2018-05-18T07:31:53.756Z,93.46
2018-05-18T07:32:53.752Z,94.13
2018-05-18T07:33:54.296Z,94.41
2018-05-18T07:36:35.673Z,94.79
2018-05-18T07:37:35.763Z,94.79
2018-05-18T07:39:30.037Z,94.89
2018-05-18T07:40:30.085Z,94.98
2018-05-18T07:42:24.577Z,94.60
2018-05-18T07:43:24.365Z,94.70
2018-05-18T07:45:18.764Z,94.70
2018-05-18T07:46:18.786Z,94.27
2018-05-18T07:47:18.787Z,94.32
2018-05-18T07:48:18.759Z,93.55
2018-05-18T07:49:18.724Z,93.60
2018-05-18T07:50:18.774Z,92.79
2018-05-18T07:51:18.780Z,92.32
2018-05-18T07:52:18.690Z,92.69
2018-05-18T07:53:18.693Z,92.98
2018-05-18T07:54:18.765Z,93.55
2018-05-18T07:55:18.690Z,93.65
2018-05-18T07:56:19.285Z,94.22
2018-05-18T07:57:18.695Z,94.70
2018-05-18T07:58:18.686Z,94.22
2018-05-18T07:59:18.684Z,94.22
2018-05-18T08:00:18.689Z,94.37
2018-05-18T08:01:18.685Z,93.79
2018-05-18T08:02:18.685Z,93.22
2018-05-18T08:03:18.684Z,93.12
2018-05-18T08:04:18.685Z,92.93
2018-05-18T08:05:18.681Z,92.65
2018-05-18T08:06:18.709Z,92.65
2018-05-18T08:07:18.681Z,92.84
2018-05-18T08:08:18.682Z,91.88
2018-05-18T08:09:18.684Z,92.84
2018-05-18T08:10:18.700Z,93.12
2018-05-18T08:11:18.676Z,92.74
2018-05-18T08:12:18.674Z,93.22
2018-05-18T08:13:18.675Z,92.74
2018-05-18T08:14:18.677Z,92.74
2018-05-18T08:15:18.675Z,92.84
2018-05-18T08:16:18.676Z,92.36
2018-05-18T08:17:18.675Z,91.60
2018-05-18T08:18:18.677Z,91.03
2018-05-18T08:19:18.677Z,91.22
2018-05-18T08:20:18.677Z,91.79
2018-05-18T08:21:18.671Z,91.50
2018-05-18T08:22:18.674Z,91.41
2018-05-18T08:23:18.705Z,91.50
2018-05-18T08:24:18.676Z,91.60
2018-05-18T08:25:18.678Z,91.50
2018-05-18T08:26:18.669Z,91.41
2018-05-18T08:27:18.716Z,91.03
2018-05-18T08:28:18.857Z,89.79
2018-05-18T08:29:18.670Z,89.60
2018-05-18T08:30:18.668Z,89.98
2018-05-18T08:31:18.669Z,89.98
2018-05-18T08:32:18.684Z,89.69
2018-05-18T08:33:18.686Z,89.22
2018-05-18T08:34:18.666Z,89.40
2018-05-18T08:35:18.665Z,88.64
2018-05-18T08:36:18.669Z,88.26
2018-05-18T08:37:18.702Z,88.74
2018-05-18T08:38:18.670Z,89.31
2018-05-18T08:39:18.667Z,88.64
2018-05-18T08:40:18.667Z,88.50
2018-05-18T08:41:18.672Z,88.40
2018-05-18T08:42:18.664Z,88.31
2018-05-18T08:43:18.666Z,87.74
2018-05-18T08:44:18.727Z,87.54
2018-05-18T08:45:18.666Z,88.21
2018-05-18T08:46:18.666Z,87.54
2018-05-18T08:47:18.662Z,87.93
2018-05-18T08:48:18.712Z,87.74
2018-05-18T08:49:18.686Z,87.74
2018-05-18T08:50:18.684Z,86.69
2018-05-18T08:51:18.664Z,86.21
2018-05-18T08:52:18.700Z,84.88
2018-05-18T08:53:18.688Z,85.35
2018-05-18T08:54:18.663Z,85.83
2018-05-18T08:55:18.663Z,85.77
2018-05-18T08:56:18.662Z,85.16
2018-05-18T08:57:18.663Z,85.54
2018-05-18T08:58:18.659Z,85.21
2018-05-18T08:59:18.665Z,83.20
2018-05-18T09:00:18.664Z,83.48
2018-05-18T09:01:18.660Z,83.87
2018-05-18T09:02:18.677Z,84.72
2018-05-18T09:03:18.695Z,84.06
2018-05-18T09:04:18.660Z,83.20
2018-05-18T09:05:18.679Z,83.67
2018-05-18T09:06:18.669Z,84.82
2018-05-18T09:07:18.706Z,85.11
2018-05-18T09:08:18.667Z,84.63
2018-05-18T09:09:18.666Z,83.87
2018-05-18T09:10:18.667Z,84.34
2018-05-18T09:11:18.665Z,83.48
2018-05-18T09:12:18.662Z,81.90
2018-05-18T09:13:18.663Z,81.90
2018-05-18T09:14:18.692Z,81.33
2018-05-18T09:15:18.663Z,81.43
2018-05-18T09:16:18.661Z,81.43
2018-05-18T09:17:18.666Z,81.90
2018-05-18T09:18:18.687Z,81.52
2018-05-18T09:19:18.668Z,81.62
2018-05-18T09:20:18.668Z,81.47
2018-05-18T09:21:18.670Z,80.90
2018-05-18T09:22:18.669Z,80.80
2018-05-18T09:23:18.668Z,80.51
2018-05-18T09:24:18.673Z,79.12
2018-05-18T09:25:18.667Z,78.70
2018-05-18T09:26:18.700Z,78.55
2018-05-18T09:27:18.674Z,79.12
2018-05-18T09:28:18.670Z,78.93
2018-05-18T09:29:18.674Z,79.22
2018-05-18T09:30:18.680Z,78.55
2018-05-18T09:31:18.708Z,77.97
2018-05-18T09:32:18.679Z,78.07
2018-05-18T09:35:42.900Z,79.12
2018-05-18T09:38:23.815Z,77.78
2018-05-18T09:39:34.371Z,77.97
2018-05-18T09:41:19.630Z,78.07
2018-05-18T09:42:19.572Z,77.97
2018-05-18T09:43:19.512Z,78.36
2018-05-18T09:44:19.664Z,77.87
2018-05-18T09:45:19.539Z,77.21
2018-05-18T09:46:19.525Z,77.87
2018-05-18T09:47:19.512Z,76.92
2018-05-18T09:48:19.693Z,77.30
2018-05-18T09:49:19.651Z,76.92
2018-05-18T09:50:19.564Z,77.17
2018-05-18T09:51:19.528Z,77.74
2018-05-18T09:52:19.541Z,78.41
2018-05-18T09:53:19.525Z,77.65
2018-05-18T09:54:19.683Z,77.94
2018-05-18T09:55:19.603Z,77.65
2018-05-18T09:56:19.525Z,77.55
2018-05-18T09:57:19.529Z,77.36
2018-05-18T09:58:19.570Z,78.03
2018-05-18T09:59:19.541Z,77.94
2018-05-18T10:00:19.564Z,78.03
2018-05-18T10:01:19.537Z,77.87
2018-05-18T10:02:19.537Z,77.87
2018-05-18T10:03:19.536Z,78.93
2018-05-18T10:04:19.560Z,77.97
2018-05-18T10:05:19.599Z,77.82
2018-05-18T10:06:21.083Z,76.29
2018-05-18T10:07:19.549Z,76.20
2018-05-18T10:08:19.546Z,76.29
2018-05-18T10:09:19.549Z,75.81
2018-05-18T10:10:19.546Z,76.20
2018-05-18T10:11:19.630Z,75.91
2018-05-18T10:12:19.598Z,76.10
2018-05-18T10:13:19.575Z,75.71
2018-05-18T10:14:19.555Z,75.14
2018-05-18T10:15:19.557Z,74.76
2018-05-18T10:16:19.562Z,74.57
2018-05-18T10:17:19.561Z,76.00
2018-05-18T10:18:19.565Z,76.00
2018-05-18T10:19:19.560Z,76.33
2018-05-18T10:20:19.565Z,75.95
2018-05-18T10:21:19.566Z,75.66
2018-05-18T10:22:19.575Z,74.61
2018-05-18T10:23:19.600Z,73.94
2018-05-18T10:24:19.576Z,73.75
2018-05-18T10:25:19.579Z,73.75
2018-05-18T10:26:19.579Z,73.27
2018-05-18T10:27:19.584Z,74.13
2018-05-18T10:28:19.587Z,74.51
2018-05-18T10:29:19.592Z,74.04
2018-05-18T10:30:19.594Z,74.04
2018-05-18T10:31:19.593Z,73.55
2018-05-18T10:32:19.623Z,73.59
2018-05-18T10:33:19.600Z,73.36
2018-05-18T10:34:19.602Z,72.92
2018-05-18T10:35:19.603Z,72.79
2018-05-18T10:36:19.605Z,72.79
2018-05-18T10:37:19.611Z,72.31
2018-05-18T10:38:19.638Z,72.88
2018-05-18T10:39:19.673Z,72.88
2018-05-18T10:40:19.649Z,72.88
2018-05-18T10:41:19.632Z,73.27
2018-05-18T10:42:19.627Z,73.40
2018-05-18T10:43:19.625Z,72.83
2018-05-18T10:44:19.681Z,72.83
2018-05-18T10:45:19.767Z,71.58
2018-05-18T10:46:19.787Z,70.91
2018-05-18T10:47:19.757Z,71.30
2018-05-18T10:48:19.706Z,70.87
2018-05-18T10:49:19.657Z,71.11
2018-05-18T10:50:19.648Z,71.48
2018-05-18T10:51:19.645Z,71.39
2018-05-18T10:52:19.654Z,71.68
2018-05-18T10:53:19.652Z,71.01
2018-05-18T10:54:19.655Z,72.44
2018-05-18T10:55:19.698Z,72.19
2018-05-18T10:56:19.662Z,71.33
2018-05-18T10:57:19.673Z,70.76
2018-05-18T10:58:19.715Z,71.37
2018-05-18T10:59:19.722Z,70.21
2018-05-18T11:00:19.677Z,70.60
2018-05-18T11:01:19.680Z,70.21
2018-05-18T11:02:19.683Z,70.50
2018-05-18T11:03:19.684Z,69.26
2018-05-18T11:04:19.690Z,69.26
2018-05-18T11:05:19.718Z,68.97
2018-05-18T11:06:19.720Z,69.01
2018-05-18T11:07:19.711Z,68.33
2018-05-18T11:08:19.707Z,68.33
2018-05-18T11:09:19.750Z,68.72
2018-05-18T11:10:19.715Z,68.24
2018-05-18T11:11:19.718Z,69.01
2018-05-18T11:12:19.719Z,68.30
2018-05-18T11:13:19.723Z,68.49
2018-05-18T11:14:19.763Z,69.93
2018-05-18T11:15:19.732Z,68.97
2018-05-18T11:16:19.753Z,69.26
2018-05-18T11:17:19.740Z,68.68
2018-05-18T11:18:19.743Z,69.26
2018-05-18T11:19:19.749Z,69.07
2018-05-18T11:20:19.755Z,68.40
2018-05-18T11:21:19.753Z,68.40
2018-05-18T11:22:19.760Z,69.10
2018-05-18T11:23:19.846Z,68.66
2018-05-18T11:24:19.765Z,67.79
2018-05-18T11:25:19.768Z,67.12
2018-05-18T11:26:19.871Z,66.83
2018-05-18T11:27:19.779Z,66.55
2018-05-18T11:28:19.780Z,67.50
2018-05-18T11:29:19.786Z,67.89
2018-05-18T11:30:19.966Z,67.32
2018-05-18T11:31:19.808Z,66.45
2018-05-18T11:32:19.803Z,66.16
2018-05-18T11:33:19.808Z,66.45
2018-05-18T11:34:19.809Z,67.09
2018-05-18T11:35:19.811Z,67.66
2018-05-18T11:36:19.822Z,68.43
2018-05-18T11:37:19.831Z,67.85
2018-05-18T11:38:19.823Z,68.43
2018-05-18T11:39:19.829Z,67.18
2018-05-18T11:40:19.841Z,67.91
2018-05-18T11:41:19.902Z,68.49
2018-05-18T11:42:19.852Z,69.74
2018-05-18T11:43:19.848Z,68.91
2018-05-18T11:44:19.849Z,69.04
2018-05-18T11:45:19.856Z,68.37
2018-05-18T11:46:19.868Z,68.56
2018-05-18T11:47:19.891Z,67.92
2018-05-18T11:48:19.879Z,67.35
2018-05-18T11:49:19.874Z,66.83
2018-05-18T11:50:19.881Z,67.32
2018-05-18T11:51:19.881Z,67.09
2018-05-18T11:52:19.885Z,66.71
2018-05-18T11:53:19.893Z,68.01
2018-05-18T11:54:19.893Z,69.07
2018-05-18T11:55:19.897Z,69.45
2018-05-18T11:56:19.900Z,69.99
2018-05-18T11:57:19.907Z,70.66
2018-05-18T11:58:19.913Z,70.62
2018-05-18T11:59:19.915Z,71.30
2018-05-18T12:00:19.920Z,72.34
2018-05-18T12:01:19.935Z,72.77
2018-05-18T12:02:19.974Z,71.71
2018-05-18T12:03:19.933Z,70.95
2018-05-18T12:04:19.935Z,70.50
2018-05-18T12:05:19.979Z,71.02
2018-05-18T12:06:19.942Z,68.91
2018-05-18T12:07:19.952Z,68.56
2018-05-18T12:08:19.984Z,67.60
2018-05-18T12:09:19.956Z,66.83
2018-05-18T12:10:19.956Z,66.39
2018-05-18T12:11:19.959Z,66.49
2018-05-18T12:12:19.973Z,66.45
2018-05-18T12:13:20.052Z,66.74
2018-05-18T12:14:19.972Z,66.39
2018-05-18T12:15:19.995Z,66.26
2018-05-18T12:16:19.988Z,66.96
2018-05-18T12:17:20.012Z,66.58
2018-05-18T12:18:21.600Z,65.62
2018-05-18T12:19:20.000Z,65.91
2018-05-18T12:20:21.627Z,65.72
2018-05-18T12:21:20.002Z,66.00
2018-05-18T12:22:20.012Z,66.10
2018-05-18T12:23:20.014Z,66.49
2018-05-18T12:24:20.015Z,65.84
2018-05-18T12:25:20.065Z,65.75
2018-05-18T12:26:20.022Z,64.34
2018-05-18T12:27:20.028Z,63.38
2018-05-18T12:28:20.093Z,64.34
2018-05-18T12:29:20.062Z,64.82
2018-05-18T12:30:20.039Z,64.72
2018-05-18T12:31:20.046Z,64.43
2018-05-18T12:32:20.054Z,64.53
2018-05-18T12:33:20.058Z,64.69
2018-05-18T12:34:20.062Z,63.35
2018-05-18T12:35:20.064Z,64.50
2018-05-18T12:36:20.093Z,64.12
2018-05-18T12:37:20.076Z,64.15
2018-05-18T12:38:20.082Z,63.96
2018-05-18T12:39:20.083Z,64.72
2018-05-18T12:40:28.750Z,63.96
2018-05-18T12:42:16.476Z,63.28
2018-05-18T12:43:15.851Z,63.67
2018-05-18T12:45:10.231Z,64.02
2018-05-18T12:46:10.472Z,64.31
2018-05-18T12:48:04.571Z,65.46
2018-05-18T12:49:04.574Z,64.53
2018-05-18T12:50:59.025Z,64.28
2018-05-18T12:51:58.954Z,63.32
2018-05-18T12:53:53.591Z,63.09
2018-05-18T12:54:53.517Z,63.83
2018-05-18T12:56:48.025Z,65.56
2018-05-18T12:57:47.989Z,64.22
2018-05-18T12:59:42.731Z,64.40
2018-05-18T13:00:42.702Z,64.98
2018-05-18T13:02:37.390Z,64.85
2018-05-18T13:03:37.382Z,65.46
2018-05-18T13:05:31.865Z,65.33
2018-05-18T13:06:31.753Z,66.67
2018-05-18T13:08:26.610Z,65.72
2018-05-18T13:09:27.080Z,65.97
2018-05-18T13:11:20.680Z,67.41
2018-05-18T13:12:20.694Z,67.09
2018-05-18T13:13:20.712Z,67.60
2018-05-18T13:14:20.545Z,67.79
2018-05-18T13:15:20.698Z,67.83
2018-05-18T13:16:22.069Z,67.06
2018-05-18T13:17:20.535Z,66.58
2018-05-18T13:18:20.550Z,66.64
2018-05-18T13:19:20.545Z,66.06
2018-05-18T13:20:20.548Z,66.06
2018-05-18T13:21:20.574Z,66.86
2018-05-18T13:22:20.587Z,66.00
2018-05-18T13:23:20.576Z,65.23
2018-05-18T13:24:20.564Z,65.72
2018-05-18T13:25:20.574Z,65.72
2018-05-18T13:26:20.608Z,65.81
2018-05-18T13:27:20.585Z,65.72
2018-05-18T13:28:20.586Z,64.47
2018-05-18T13:29:20.588Z,64.76
2018-05-18T13:30:20.618Z,65.43